createdAt,value
2022-08-18T00:02:22.885Z,99999.22
2022-08-18T00:05:29.906Z,99998.09
2022-08-18T00:08:36.012Z,99981.44
2022-08-18T00:11:43.260Z,99982.28
2022-08-18T00:14:46.745Z,99981.22
2022-08-18T00:17:48.676Z,99983.47
2022-08-18T00:20:50.481Z,99979.09
2022-08-18T00:23:53.319Z,99975.41
2022-08-18T00:26:54.994Z,99970.13
2022-08-18T00:29:59.899Z,99977.19
2022-08-18T00:33:02.002Z,99975.91
2022-08-18T00:36:04.207Z,99967.94
2022-08-18T00:39:06.153Z,99964.81
2022-08-18T00:42:27.698Z,99960.84
2022-08-18T00:45:36.754Z,99962.56
2022-08-18T00:48:38.616Z,99951.44
2022-08-18T00:51:49.802Z,99946.22
2022-08-18T00:54:53.835Z,99943.28
2022-08-18T00:58:02.679Z,99945.63
2022-08-18T01:01:06.894Z,99935.22
2022-08-18T01:04:14.943Z,99942.19
2022-08-18T01:07:29.710Z,99943.81
2022-08-18T01:10:34.541Z,99944.78
2022-08-18T01:13:38.864Z,99948.09
2022-08-18T01:16:59.347Z,99948.16
2022-08-18T01:20:20.656Z,99950.16
2022-08-18T01:23:23.037Z,99944.28
2022-08-18T01:26:26.885Z,99944.72
2022-08-18T01:29:29.881Z,99944.84
2022-08-18T01:32:31.541Z,99947.03
2022-08-18T01:35:41.569Z,99948.53
2022-08-18T01:38:46.005Z,99945.50
2022-08-18T01:41:47.805Z,99944.88
2022-08-18T01:44:51.631Z,99947.91
2022-08-18T01:47:53.237Z,99943.47
2022-08-18T01:50:57.149Z,99940.44
2022-08-18T01:53:59.718Z,99942.34
2022-08-18T01:57:02.448Z,99947.44
2022-08-18T02:00:05.486Z,99948.19
2022-08-18T02:03:11.688Z,99951.62
2022-08-18T02:06:17.197Z,99954.28
2022-08-18T02:09:34.463Z,99952.28
2022-08-18T02:12:36.762Z,99957.34
2022-08-18T02:15:38.650Z,99964.16
2022-08-18T02:21:52.872Z,99967.59
2022-08-18T02:24:56.963Z,99966.47
2022-08-18T02:27:58.761Z,99982.66
2022-08-18T02:31:11.412Z,99982.03
2022-08-18T02:34:13.310Z,99982.00
2022-08-18T02:37:15.673Z,99994.53
2022-08-18T02:40:19.156Z,99977.44
2022-08-18T02:43:21.082Z,99975.97
2022-08-18T02:46:22.758Z,99972.59
2022-08-18T02:49:25.604Z,99992.72
2022-08-18T02:52:33.366Z,99982.91
2022-08-18T02:55:35.057Z,99978.28
2022-08-18T02:58:36.678Z,99985.72
2022-08-18T03:01:41.632Z,99986.94
2022-08-18T03:04:43.818Z,99987.56
2022-08-18T03:07:46.420Z,99993.84
2022-08-18T03:10:52.795Z,99995.78
2022-08-18T03:13:57.007Z,99992.44
2022-08-18T03:16:59.942Z,99994.84
2022-08-18T03:20:02.712Z,99998.12
2022-08-18T03:23:10.016Z,100000.25
2022-08-18T03:26:13.793Z,100001.59
2022-08-18T03:29:15.625Z,100014.84
2022-08-18T03:32:17.794Z,100022.72
2022-08-18T03:35:19.385Z,100021.94
2022-08-18T03:38:21.403Z,100022.78
2022-08-18T03:41:56.927Z,100014.00
2022-08-18T03:44:47.426Z,100012.88
2022-08-18T03:47:53.714Z,100015.91
2022-08-18T03:50:55.692Z,100015.00
2022-08-18T03:54:00.442Z,100016.66
2022-08-18T03:57:02.377Z,100017.91
2022-08-18T04:00:04.642Z,100010.78
2022-08-18T04:03:08.184Z,100018.78
2022-08-18T04:06:29.848Z,100017.25
2022-08-18T04:09:33.444Z,100021.72
2022-08-18T04:12:37.118Z,100034.63
2022-08-18T04:15:39.089Z,100036.75
2022-08-18T04:18:40.847Z,100041.28
2022-08-18T04:21:43.094Z,100038.75
2022-08-18T04:24:45.424Z,100037.06
2022-08-18T04:27:47.096Z,100043.13
2022-08-18T04:30:48.998Z,100037.63
2022-08-18T04:33:51.027Z,100042.88
2022-08-18T04:36:54.269Z,100031.97
2022-08-18T04:39:56.397Z,100035.31
2022-08-18T04:42:58.358Z,100034.16
2022-08-18T04:46:02.197Z,100035.06
2022-08-18T04:49:04.069Z,100039.31
2022-08-18T04:52:38.853Z,100038.06
2022-08-18T04:55:54.900Z,100039.19
2022-08-18T04:59:08.587Z,100030.50
2022-08-18T05:02:14.640Z,100034.41
2022-08-18T05:05:16.861Z,100042.66
2022-08-18T05:08:18.487Z,100039.69
2022-08-18T05:11:25.361Z,100037.47
2022-08-18T05:14:27.605Z,100036.41
2022-08-18T05:17:30.225Z,100040.28
2022-08-18T05:20:32.444Z,100043.72
2022-08-18T05:23:34.107Z,100050.97
2022-08-18T05:26:36.928Z,100041.69
2022-08-18T05:29:42.014Z,100045.88
2022-08-18T05:32:50.094Z,100044.97
2022-08-18T05:36:03.536Z,100049.66
2022-08-18T05:39:46.589Z,100045.84
2022-08-18T05:42:48.887Z,100038.06
2022-08-18T05:45:54.757Z,100043.00
2022-08-18T05:48:56.391Z,100047.78
2022-08-18T05:52:03.320Z,100047.88
2022-08-18T05:55:26.069Z,100049.09
2022-08-18T05:58:38.141Z,100054.03
2022-08-18T06:01:44.625Z,100058.56
2022-08-18T06:05:00.146Z,100056.59
2022-08-18T06:08:08.674Z,100057.66
2022-08-18T06:11:22.424Z,100058.28
2022-08-18T06:14:25.232Z,100049.72
2022-08-18T06:17:35.941Z,100054.69
2022-08-18T06:21:17.071Z,100046.16
2022-08-18T06:24:56.988Z,100048.72
2022-08-18T06:28:08.341Z,100053.56
2022-08-18T06:31:29.847Z,100060.19
2022-08-18T06:34:54.625Z,100056.16
2022-08-18T06:38:24.367Z,100055.91
2022-08-18T06:41:50.351Z,100042.25
2022-08-18T06:44:57.630Z,100050.00
2022-08-18T06:48:17.983Z,100049.94
2022-08-18T06:51:22.432Z,100049.50
2022-08-18T06:54:30.098Z,100050.03
2022-08-18T06:57:35.622Z,100050.16
2022-08-18T07:00:39.770Z,100046.19
2022-08-18T07:03:52.664Z,100040.84
2022-08-18T07:06:54.315Z,100049.66
2022-08-18T07:09:56.516Z,100051.69
2022-08-18T07:13:13.314Z,100049.44
2022-08-18T07:16:54.894Z,100047.19
2022-08-18T07:20:01.134Z,100054.84
2022-08-18T07:23:07.983Z,100046.56
2022-08-18T07:26:18.084Z,100036.50
2022-08-18T07:29:19.829Z,100033.50
2022-08-18T07:32:22.959Z,100031.78
2022-08-18T07:35:49.293Z,100039.59
2022-08-18T07:38:57.222Z,100038.66
2022-08-18T07:42:03.764Z,100025.22
2022-08-18T07:45:18.147Z,100030.91
2022-08-18T07:48:38.464Z,100025.50
2022-08-18T07:51:43.624Z,100040.37
2022-08-18T07:55:18.701Z,100044.28
2022-08-18T07:58:20.439Z,100036.59
2022-08-18T08:01:34.336Z,100037.78
2022-08-18T08:04:45.148Z,100042.66
2022-08-18T08:07:58.342Z,100046.06
2022-08-18T08:11:17.035Z,100046.34
2022-08-18T08:14:26.722Z,100041.72
2022-08-18T08:17:43.082Z,100045.13
2022-08-18T08:20:56.145Z,100038.72
2022-08-18T08:24:21.367Z,100045.75
2022-08-18T08:27:49.238Z,100054.91
2022-08-18T08:31:25.570Z,100045.75
2022-08-18T08:35:12.728Z,100059.72
2022-08-18T08:38:47.358Z,100049.97
2022-08-18T08:42:29.113Z,100054.56
2022-08-18T08:45:52.161Z,100056.63
2022-08-18T08:49:07.601Z,100054.75
2022-08-18T08:52:18.742Z,100057.63
2022-08-18T08:55:28.775Z,100055.22
2022-08-18T08:58:53.079Z,100050.87
2022-08-18T09:02:15.974Z,100048.31
2022-08-18T09:05:29.851Z,100050.03
2022-08-18T09:08:49.691Z,100046.31
2022-08-18T09:12:07.202Z,100036.56
2022-08-18T09:15:09.082Z,100039.41
2022-08-18T09:18:28.294Z,100046.84
2022-08-18T09:21:45.879Z,100044.37
2022-08-18T09:24:50.981Z,100047.03
2022-08-18T09:28:12.433Z,100038.94
2022-08-18T09:31:19.549Z,100038.13
2022-08-18T09:34:34.382Z,100041.16
2022-08-18T09:37:39.214Z,100041.94
2022-08-18T09:41:11.725Z,100032.94
2022-08-18T09:44:34.387Z,100045.62
2022-08-18T09:47:35.994Z,100031.22
2022-08-18T09:51:17.642Z,100022.91
2022-08-18T09:54:25.472Z,100025.75
2022-08-18T09:57:43.822Z,100024.63
2022-08-18T10:00:45.885Z,100021.38
2022-08-18T10:04:14.670Z,100021.94
2022-08-18T10:07:29.088Z,100025.72
2022-08-18T10:11:01.051Z,100017.81
2022-08-18T10:14:35.657Z,100016.28
2022-08-18T10:17:44.644Z,100010.94
2022-08-18T10:21:03.835Z,100005.59
2022-08-18T10:24:32.267Z,100001.78
2022-08-18T10:27:44.525Z,100002.38
2022-08-18T10:31:05.822Z,99995.44
2022-08-18T10:34:18.502Z,99988.91
2022-08-18T10:37:34.295Z,99985.94
2022-08-18T10:40:36.835Z,99972.31
2022-08-18T10:47:11.962Z,99977.87
2022-08-18T10:50:23.206Z,99968.84
2022-08-18T10:53:39.361Z,99974.03
2022-08-18T10:57:06.055Z,99967.16
2022-08-18T11:00:13.645Z,99973.22
2022-08-18T11:03:52.245Z,99962.41
2022-08-18T11:07:07.606Z,99959.69
2022-08-18T11:10:58.147Z,99957.78
2022-08-18T11:14:04.126Z,99964.63
2022-08-18T11:17:22.448Z,99955.94
2022-08-18T11:20:31.760Z,99961.72
2022-08-18T11:23:33.702Z,99957.25
2022-08-18T11:26:58.907Z,99956.81
2022-08-18T11:30:02.771Z,99942.28
2022-08-18T11:33:05.849Z,99946.06
2022-08-18T11:36:09.103Z,99944.75
2022-08-18T11:39:26.453Z,99937.66
2022-08-18T11:42:42.040Z,99932.66
2022-08-18T11:45:55.515Z,99932.03
2022-08-18T11:48:58.759Z,99933.81
2022-08-18T11:52:28.987Z,99929.06
2022-08-18T11:55:38.074Z,99933.75
2022-08-18T11:58:54.024Z,99920.31
2022-08-18T12:01:56.813Z,99914.09
2022-08-18T12:05:08.749Z,99898.38
2022-08-18T12:08:57.850Z,99900.41
2022-08-18T12:11:58.849Z,99899.38
2022-08-18T12:15:17.503Z,99893.47
2022-08-18T12:18:28.483Z,99896.78
2022-08-18T12:21:32.708Z,99880.38
2022-08-18T12:24:39.159Z,99885.31
2022-08-18T12:27:42.072Z,99886.81
2022-08-18T12:30:46.076Z,99882.69
2022-08-18T12:34:00.752Z,99877.06
2022-08-18T12:37:07.157Z,99863.41
2022-08-18T12:40:16.066Z,99865.28
2022-08-18T12:43:17.957Z,99849.53
2022-08-18T12:46:22.333Z,99846.75
2022-08-18T12:49:27.242Z,99838.66
2022-08-18T12:52:31.336Z,99843.44
2022-08-18T12:55:44.092Z,99839.00
2022-08-18T12:58:48.446Z,99840.13
2022-08-18T13:01:50.955Z,99840.97
2022-08-18T13:05:00.380Z,99835.34
2022-08-18T13:08:05.387Z,99840.47
2022-08-18T13:11:15.076Z,99844.94
2022-08-18T13:14:25.913Z,99851.38
2022-08-18T13:17:30.612Z,99863.87
2022-08-18T13:20:36.589Z,99856.97
2022-08-18T13:23:38.912Z,99861.06
2022-08-18T13:26:45.830Z,99862.13
2022-08-18T13:29:48.455Z,99862.56
2022-08-18T13:32:58.943Z,99868.50
2022-08-18T13:36:01.199Z,99878.28
2022-08-18T13:39:04.204Z,99874.16
2022-08-18T13:42:21.466Z,99879.66
2022-08-18T13:45:28.552Z,99874.28
2022-08-18T13:48:31.494Z,99881.47
2022-08-18T13:51:34.327Z,99876.00
2022-08-18T13:54:36.189Z,99877.41
2022-08-18T13:57:42.143Z,99872.72
2022-08-18T14:00:45.526Z,99877.00
2022-08-18T14:03:48.309Z,99878.47
2022-08-18T14:06:57.451Z,99878.37
2022-08-18T14:10:04.485Z,99891.28
2022-08-18T14:13:20.194Z,99897.94
2022-08-18T14:16:26.781Z,99903.16
2022-08-18T14:19:47.774Z,99897.06
2022-08-18T14:23:10.859Z,99899.78
2022-08-18T14:26:31.430Z,99889.34
2022-08-18T14:29:45.808Z,99898.50
2022-08-18T14:32:49.105Z,99891.88
2022-08-18T14:36:06.272Z,99888.06
2022-08-18T14:39:11.694Z,99889.84
2022-08-18T14:42:16.278Z,99879.34
2022-08-18T14:45:31.128Z,99881.41
2022-08-18T14:48:37.350Z,99877.09
2022-08-18T14:51:42.891Z,99882.34
2022-08-18T14:54:46.223Z,99880.09
2022-08-18T14:57:53.291Z,99874.38
2022-08-18T15:00:58.927Z,99872.84
2022-08-18T15:04:00.930Z,99880.72
2022-08-18T15:07:23.846Z,99877.63
2022-08-18T15:10:27.985Z,99872.81
2022-08-18T15:13:30.464Z,99868.62
2022-08-18T15:16:38.645Z,99858.38
2022-08-18T15:20:00.089Z,99856.75
2022-08-18T15:23:40.428Z,99854.53
2022-08-18T15:26:45.942Z,99852.72
2022-08-18T15:29:47.574Z,99862.34
2022-08-18T15:32:53.008Z,99861.94
2022-08-18T15:35:56.009Z,99864.13
2022-08-18T15:38:59.534Z,99857.50
2022-08-18T15:42:09.475Z,99852.25
2022-08-18T15:45:13.897Z,99858.72
2022-08-18T15:48:18.334Z,99862.59
2022-08-18T15:51:20.538Z,99852.75
2022-08-18T15:54:22.252Z,99845.69
2022-08-18T15:57:39.197Z,99839.06
2022-08-18T16:00:45.508Z,99844.53
2022-08-18T16:03:48.920Z,99836.66
2022-08-18T16:06:52.518Z,99837.88
2022-08-18T16:09:54.695Z,99833.19
2022-08-18T16:12:56.962Z,99829.62
2022-08-18T16:15:58.648Z,99833.59
2022-08-18T16:19:01.885Z,99831.00
2022-08-18T16:22:06.650Z,99838.41
2022-08-18T16:25:09.519Z,99838.66
2022-08-18T16:28:13.354Z,99838.16
2022-08-18T16:31:16.499Z,99841.03
2022-08-18T16:34:18.103Z,99841.87
2022-08-18T16:37:20.010Z,99851.31
2022-08-18T16:40:22.579Z,99855.91
2022-08-18T16:43:30.423Z,99855.22
2022-08-18T16:46:32.244Z,99850.47
2022-08-18T16:49:35.189Z,99844.09
2022-08-18T16:52:37.259Z,99848.34
2022-08-18T16:55:39.111Z,99845.31
2022-08-18T16:58:59.387Z,99841.97
2022-08-18T17:02:19.749Z,99843.50
2022-08-18T17:05:21.435Z,99856.06
2022-08-18T17:08:23.041Z,99861.00
2022-08-18T17:11:27.279Z,99858.00
2022-08-18T17:14:30.464Z,99861.78
2022-08-18T17:17:32.067Z,99851.94
2022-08-18T17:20:36.542Z,99862.88
2022-08-18T17:23:38.831Z,99853.88
2022-08-18T17:27:27.236Z,99860.34
2022-08-18T17:30:32.175Z,99856.53
2022-08-18T17:33:37.824Z,99843.16
2022-08-18T17:36:52.969Z,99841.97
2022-08-18T17:40:00.765Z,99837.94
2022-08-18T17:43:02.546Z,99832.81
2022-08-18T17:46:33.154Z,99826.91
2022-08-18T17:50:06.761Z,99834.72
2022-08-18T17:53:23.469Z,99832.47
2022-08-18T17:56:35.470Z,99824.09
2022-08-18T17:59:52.199Z,99831.09
2022-08-18T18:02:53.980Z,99831.59
2022-08-18T18:09:30.551Z,99837.12
2022-08-18T18:12:35.974Z,99840.00
2022-08-18T18:15:42.257Z,99837.28
2022-08-18T18:18:45.341Z,99837.66
2022-08-18T18:22:03.496Z,99828.91
2022-08-18T18:25:07.922Z,99829.03
2022-08-18T18:28:29.931Z,99818.59
2022-08-18T18:31:32.329Z,99811.31
2022-08-18T18:34:43.610Z,99813.22
2022-08-18T18:38:26.816Z,99814.78
2022-08-18T18:41:28.797Z,99818.09
2022-08-18T18:44:32.746Z,99817.56
2022-08-18T18:48:04.743Z,99822.78
2022-08-18T18:51:14.500Z,99837.97
2022-08-18T18:54:38.745Z,99841.47
2022-08-18T18:58:10.867Z,99848.66
2022-08-18T19:01:34.918Z,99850.19
2022-08-18T19:04:58.172Z,99855.03
2022-08-18T19:08:15.295Z,99861.66
2022-08-18T19:11:38.341Z,99852.94
2022-08-18T19:14:59.794Z,99853.56
2022-08-18T19:18:14.174Z,99862.13
2022-08-18T19:22:02.029Z,99861.41
2022-08-18T19:24:54.447Z,99878.97
2022-08-18T19:28:04.446Z,99881.78
2022-08-18T19:31:18.053Z,99872.16
2022-08-18T19:34:31.087Z,99871.31
2022-08-18T19:37:49.768Z,99876.00
2022-08-18T19:41:01.234Z,99870.66
2022-08-18T19:44:16.716Z,99880.63
2022-08-18T19:47:32.795Z,99877.88
2022-08-18T19:50:48.553Z,99877.94
2022-08-18T19:54:11.283Z,99882.19
2022-08-18T19:57:31.297Z,99872.44
2022-08-18T20:00:48.456Z,99873.22
2022-08-18T20:04:04.579Z,99871.16
2022-08-18T20:07:29.868Z,99872.00
2022-08-18T20:10:49.480Z,99868.62
2022-08-18T20:13:55.594Z,99866.06
2022-08-18T20:17:09.495Z,99864.00
2022-08-18T20:20:15.906Z,99867.62
2022-08-18T20:23:38.979Z,99864.94
2022-08-18T20:26:44.400Z,99865.38
2022-08-18T20:29:46.630Z,99866.75
2022-08-18T20:33:24.151Z,99868.56
2022-08-18T20:36:31.571Z,99859.81
2022-08-18T20:39:52.533Z,99872.56
2022-08-18T20:42:57.520Z,99868.19
2022-08-18T20:46:21.947Z,99876.31
2022-08-18T20:50:08.178Z,99876.94
2022-08-18T20:53:49.152Z,99878.22
2022-08-18T20:56:59.922Z,99866.59
2022-08-18T21:00:22.640Z,99869.72
2022-08-18T21:03:55.538Z,99863.97
2022-08-18T21:07:12.786Z,99863.41
2022-08-18T21:10:22.377Z,99867.28
2022-08-18T21:13:41.423Z,99869.78
2022-08-18T21:16:45.696Z,99875.78
2022-08-18T21:19:47.348Z,99878.37
2022-08-18T21:22:49.562Z,99881.00
2022-08-18T21:25:54.935Z,99884.28
2022-08-18T21:29:05.339Z,99891.19
2022-08-18T21:32:17.675Z,99893.97
2022-08-18T21:35:31.420Z,99890.88
2022-08-18T21:38:33.634Z,99901.69
2022-08-18T21:41:46.960Z,99898.00
2022-08-18T21:44:54.332Z,99909.37
2022-08-18T21:48:02.490Z,99914.12
2022-08-18T21:51:04.359Z,99915.50
2022-08-18T21:54:06.352Z,99924.75
2022-08-18T21:57:26.706Z,99922.03
2022-08-18T22:00:34.754Z,99929.34
2022-08-18T22:03:59.581Z,99925.56
2022-08-18T22:07:05.379Z,99929.03
2022-08-18T22:10:42.448Z,99936.84
2022-08-18T22:13:59.789Z,99934.31
2022-08-18T22:17:25.437Z,99930.78
2022-08-18T22:20:49.757Z,99942.38
2022-08-18T22:24:11.034Z,99947.00
2022-08-18T22:27:19.864Z,99940.03
2022-08-18T22:30:21.492Z,99934.59
2022-08-18T22:33:23.552Z,99945.38
2022-08-18T22:36:32.461Z,99944.12
2022-08-18T22:39:52.998Z,99947.28
2022-08-18T22:42:54.667Z,99947.25
2022-08-18T22:45:56.438Z,99942.56
2022-08-18T22:48:58.578Z,99952.03
2022-08-18T22:52:00.264Z,99956.00
2022-08-18T22:55:08.023Z,99958.09
2022-08-18T22:58:09.820Z,99961.63
2022-08-18T23:01:12.889Z,99976.91
2022-08-18T23:04:16.141Z,99967.34
2022-08-18T23:07:23.015Z,99965.78
2022-08-18T23:10:24.611Z,99963.69
2022-08-18T23:13:27.034Z,99966.59
2022-08-18T23:16:31.645Z,99963.00
2022-08-18T23:19:34.144Z,99968.19
2022-08-18T23:22:36.320Z,99966.06
2022-08-18T23:25:39.707Z,99961.38
2022-08-18T23:28:49.295Z,99961.41
2022-08-18T23:31:54.667Z,99961.28
2022-08-18T23:34:57.164Z,99967.53
2022-08-18T23:37:58.957Z,99968.41
2022-08-18T23:41:00.691Z,99962.81
2022-08-18T23:44:02.727Z,99954.06
2022-08-18T23:47:06.292Z,99960.09
2022-08-18T23:50:08.240Z,99956.03
2022-08-18T23:53:11.101Z,99955.75
2022-08-18T23:56:12.696Z,99965.78
2022-08-18T23:59:16.431Z,99963.37
